Time;durP1;ratioP1;P1;durP2;ratioP2;P2;SDS_P1;SDS_P2;PMS_P1;PMS_P2;Temp;Humidity;BMP_temperature;BMP_pressure;BME280_temperature;BME280_humidity;BME280_pressure;Samples;Min_cycle;Max_cycle;Signal;HPM_P1;HPM_P2
2022/03/19 00:02:25;;;;;;;5.03;4.23;;;22.50;52.70;;;;;;4968358;28;20196;-88
2022/03/19 00:04:51;;;;;;;6.80;4.57;;;22.50;52.70;;;;;;4968060;28;20182;-88
2022/03/19 00:07:18;;;;;;;4.37;3.97;;;22.50;52.60;;;;;;4985857;28;20177;-88
2022/03/19 00:09:44;;;;;;;4.50;4.10;;;22.50;52.60;;;;;;4985610;28;20463;-87
2022/03/19 00:15:34;;;;;;;4.37;3.97;;;22.50;52.60;;;;;;4985864;28;20655;-87
2022/03/19 00:18:04;;;;;;;3.97;3.57;;;22.50;52.70;;;;;;4968857;28;20425;-88
2022/03/19 00:20:32;;;;;;;3.87;3.57;;;22.50;52.70;;;;;;4969388;28;20464;-88
2022/03/19 00:22:59;;;;;;;5.80;4.43;;;22.50;52.70;;;;;;4970251;28;20419;-90
2022/03/19 00:25:25;;;;;;;4.63;3.90;;;22.50;52.70;;;;;;4973429;28;20425;-90
2022/03/19 00:27:51;;;;;;;4.10;3.73;;;22.50;52.60;;;;;;4974044;28;20511;-90
2022/03/19 00:30:20;;;;;;;4.20;3.53;;;22.50;52.60;;;;;;4974785;28;20448;-90
2022/03/19 00:32:51;;;;;;;4.63;4.10;;;22.50;52.60;;;;;;4973772;28;20453;-90
2022/03/19 00:35:19;;;;;;;4.23;3.83;;;22.50;52.60;;;;;;4973677;28;20492;-90
2022/03/19 00:37:52;;;;;;;4.93;4.20;;;22.50;52.60;;;;;;4958102;28;20485;-90
2022/03/19 00:40:20;;;;;;;4.07;3.50;;;22.50;52.60;;;;;;4974295;28;20425;-90
2022/03/19 00:42:48;;;;;;;4.70;4.00;;;22.50;52.70;;;;;;4991484;28;20433;-90
2022/03/19 00:45:16;;;;;;;4.40;4.00;;;22.50;52.60;;;;;;4958595;29;20410;-90
2022/03/19 00:47:46;;;;;;;4.60;4.20;;;22.50;52.60;;;;;;4954804;29;20414;-90
2022/03/19 00:50:12;;;;;;;4.80;3.73;;;22.50;52.60;;;;;;4972747;28;20407;-90
2022/03/19 00:52:39;;;;;;;4.53;3.83;;;22.50;52.60;;;;;;4966198;28;20531;-90
2022/03/19 00:55:05;;;;;;;5.03;4.00;;;22.50;52.60;;;;;;4973138;28;20820;-90
2022/03/19 00:57:46;;;;;;;4.60;4.10;;;22.50;52.60;;;;;;4973928;28;20800;-90
2022/03/19 01:00:15;;;;;;;3.63;3.30;;;22.50;52.60;;;;;;4990791;28;20417;-89
2022/03/19 01:02:45;;;;;;;4.30;3.90;;;22.50;52.60;;;;;;4990709;28;20405;-90
2022/03/19 01:05:12;;;;;;;3.80;3.40;;;22.50;52.60;;;;;;4973164;28;20421;-91
2022/03/19 01:07:48;;;;;;;3.90;3.60;;;22.50;52.60;;;;;;4973832;28;20413;-91
2022/03/19 01:10:19;;;;;;;4.90;4.23;;;22.50;52.60;;;;;;4972200;28;20420;-91
2022/03/19 01:12:52;;;;;;;7.13;3.97;;;22.50;52.60;;;;;;4989203;28;20455;-89
2022/03/19 01:15:18;;;;;;;4.20;3.80;;;22.50;52.70;;;;;;4972770;28;20433;-90
2022/03/19 01:17:44;;;;;;;4.13;3.73;;;22.40;52.50;;;;;;4991397;28;20458;-90
2022/03/19 01:20:12;;;;;;;4.23;3.83;;;22.40;52.50;;;;;;4974243;28;20449;-90
2022/03/19 01:22:39;;;;;;;4.50;3.70;;;22.50;52.60;;;;;;4974829;28;20428;-89
2022/03/19 01:25:06;;;;;;;3.93;3.57;;;22.50;52.60;;;;;;4974042;28;20439;-89
2022/03/19 01:27:37;;;;;;;5.60;3.90;;;22.40;52.50;;;;;;4974280;28;20425;-89
2022/03/19 01:30:06;;;;;;;3.83;3.50;;;22.40;52.50;;;;;;4991946;28;20868;-89
2022/03/19 01:32:33;;;;;;;4.33;3.93;;;22.40;52.60;;;;;;4990940;28;20416;-89
2022/03/19 01:35:02;;;;;;;5.03;3.97;;;22.40;52.60;;;;;;4974275;28;20441;-89
2022/03/19 01:37:28;;;;;;;4.17;3.80;;;22.40;52.50;;;;;;4973587;28;20455;-89
2022/03/19 01:39:57;;;;;;;4.03;3.63;;;22.40;52.50;;;;;;4974156;28;20480;-88
2022/03/19 01:42:30;;;;;;;4.20;3.80;;;22.40;52.50;;;;;;4991900;28;20208;-89
2022/03/19 01:44:59;;;;;;;3.77;3.40;;;22.40;52.50;;;;;;4974176;28;20421;-90
2022/03/19 01:47:29;;;;;;;4.20;3.80;;;22.40;52.60;;;;;;4991531;28;20435;-91
2022/03/19 01:49:56;;;;;;;4.27;3.87;;;22.40;52.60;;;;;;4976634;28;20492;-91
2022/03/19 01:52:43;;;;;;;3.93;3.53;;;22.40;52.50;;;;;;4976177;28;20448;-91
2022/03/19 01:55:14;;;;;;;3.77;3.37;;;22.40;52.60;;;;;;4976458;28;20409;-90
2022/03/19 01:57:47;;;;;;;4.13;3.73;;;22.40;52.60;;;;;;4975211;28;20428;-91
2022/03/19 02:00:17;;;;;;;3.73;3.30;;;22.40;52.60;;;;;;4976373;28;20421;-91
2022/03/19 02:02:59;;;;;;;3.70;3.27;;;22.40;52.60;;;;;;4975988;28;20424;-90
2022/03/19 02:05:28;;;;;;;4.57;4.00;;;22.40;52.60;;;;;;4976995;28;20432;-90
2022/03/19 02:07:54;;;;;;;3.70;3.40;;;22.40;52.60;;;;;;4971918;28;20421;-89
2022/03/19 02:13:44;;;;;;;3.93;3.53;;;22.40;52.60;;;;;;4989473;28;20805;-90
2022/03/19 02:16:27;;;;;;;3.60;3.27;;;22.40;52.60;;;;;;4989417;28;20496;-89
2022/03/19 02:18:53;;;;;;;3.30;3.00;;;22.40;52.60;;;;;;4971822;28;20421;-90
2022/03/19 02:27:32;;;;;;;3.70;3.30;;;22.40;52.70;;;;;;4977715;28;20404;-91
2022/03/19 02:30:02;;;;;;;3.30;3.00;;;22.40;52.70;;;;;;4993029;28;20508;-90
2022/03/19 02:32:28;;;;;;;5.60;3.70;;;22.40;52.70;;;;;;4960061;28;20432;-90
2022/03/19 02:34:54;;;;;;;3.90;3.50;;;22.40;52.70;;;;;;4976385;28;20433;-90
2022/03/19 02:37:25;;;;;;;3.43;3.00;;;22.40;52.60;;;;;;4976155;28;20189;-90
2022/03/19 02:39:50;;;;;;;5.00;3.97;;;22.40;52.60;;;;;;4975421;28;20437;-90
2022/03/19 02:42:18;;;;;;;4.17;3.33;;;22.40;52.60;;;;;;4974940;28;20836;-91
2022/03/19 02:44:48;;;;;;;4.77;4.10;;;22.40;52.60;;;;;;4976039;28;20181;-91
2022/03/19 02:47:15;;;;;;;5.27;4.77;;;22.40;52.60;;;;;;4958822;28;20476;-91
2022/03/19 02:49:42;;;;;;;3.30;3.00;;;22.40;52.60;;;;;;4991597;28;20845;-90
2022/03/19 02:52:08;;;;;;;4.20;3.47;;;22.40;52.60;;;;;;4975120;28;20751;-92
2022/03/19 02:54:34;;;;;;;4.03;3.30;;;22.40;52.60;;;;;;4974170;28;20409;-92
2022/03/19 02:57:00;;;;;;;3.67;3.10;;;22.40;52.60;;;;;;4975851;28;20501;-91
2022/03/19 02:59:29;;;;;;;4.10;3.70;;;22.40;52.60;;;;;;4975892;28;20639;-91
2022/03/19 03:02:05;;;;;;;3.90;3.33;;;22.40;52.60;;;;;;4975242;28;20448;-91
2022/03/19 03:04:32;;;;;;;3.93;2.70;;;22.40;52.60;;;;;;4974860;28;20496;-91
2022/03/19 03:07:01;;;;;;;4.30;3.60;;;22.40;52.60;;;;;;4974839;28;20481;-91
2022/03/19 03:09:28;;;;;;;3.17;2.87;;;22.40;52.60;;;;;;4991671;28;20444;-91
2022/03/19 03:11:58;;;;;;;3.40;3.10;;;22.40;52.50;;;;;;4974657;28;20456;-92
2022/03/19 03:14:24;;;;;;;3.40;3.10;;;22.40;52.60;;;;;;4974669;28;20402;-90
2022/03/19 03:16:52;;;;;;;3.40;3.10;;;22.40;52.50;;;;;;4975591;28;20420;-91
2022/03/19 03:19:19;;;;;;;3.80;3.07;;;22.40;52.50;;;;;;4975396;28;20440;-91
2022/03/19 03:21:45;;;;;;;3.00;2.60;;;22.30;52.40;;;;;;4974106;28;20429;-91
2022/03/19 03:24:12;;;;;;;3.40;3.07;;;22.30;52.40;;;;;;4974926;28;20424;-91
2022/03/19 03:26:40;;;;;;;4.67;3.67;;;22.30;52.50;;;;;;4974177;28;20492;-91
2022/03/19 03:29:06;;;;;;;3.40;3.00;;;22.30;52.50;;;;;;4973913;28;20461;-91
2022/03/19 03:31:34;;;;;;;3.00;2.80;;;22.40;52.60;;;;;;4973462;28;20425;-91
2022/03/19 03:34:01;;;;;;;4.03;3.23;;;22.30;52.50;;;;;;4974027;28;20472;-91
2022/03/19 03:36:28;;;;;;;3.10;2.80;;;22.30;52.50;;;;;;4974259;28;20421;-91
2022/03/19 03:38:57;;;;;;;3.50;3.20;;;22.30;52.60;;;;;;4974881;28;20509;-91
2022/03/19 03:41:23;;;;;;;3.40;3.10;;;22.30;52.60;;;;;;4973340;28;20421;-91
2022/03/19 03:43:52;;;;;;;3.30;3.00;;;22.30;52.60;;;;;;4974080;28;20757;-91
2022/03/19 03:46:17;;;;;;;3.30;3.00;;;22.30;52.60;;;;;;4974321;28;20432;-92
2022/03/19 03:48:45;;;;;;;3.10;2.80;;;22.30;52.60;;;;;;4974308;28;20528;-91
2022/03/19 03:51:12;;;;;;;3.73;3.40;;;22.30;52.70;;;;;;4973649;28;20208;-91
2022/03/19 03:53:39;;;;;;;3.80;3.17;;;22.30;52.70;;;;;;4974060;28;20417;-91
2022/03/19 03:56:07;;;;;;;3.63;2.90;;;22.30;52.70;;;;;;4973586;28;20424;-91
2022/03/19 03:58:35;;;;;;;3.80;2.90;;;22.30;52.70;;;;;;4974041;28;20457;-91
2022/03/19 04:01:01;;;;;;;3.50;3.07;;;22.20;52.60;;;;;;4974028;28;20428;-91
2022/03/19 04:06:50;;;;;;;2.83;2.63;;;22.30;52.70;;;;;;4990909;28;20416;-91
2022/03/19 04:09:16;;;;;;;4.00;2.90;;;22.20;52.60;;;;;;4973358;28;20526;-91
2022/03/19 04:11:41;;;;;;;2.83;2.60;;;22.20;52.60;;;;;;4973343;28;20425;-91
2022/03/19 04:14:07;;;;;;;3.70;3.23;;;22.20;52.70;;;;;;4990553;28;20174;-91
2022/03/19 04:16:36;;;;;;;3.13;2.80;;;22.20;52.60;;;;;;4972686;28;20180;-91
2022/03/19 04:19:02;;;;;;;3.57;3.27;;;22.20;52.60;;;;;;4972604;28;20448;-91
2022/03/19 04:21:29;;;;;;;3.40;3.10;;;22.20;52.60;;;;;;4973667;28;20429;-91
2022/03/19 04:23:55;;;;;;;3.50;3.20;;;22.20;52.60;;;;;;4973691;28;20185;-91
2022/03/19 04:26:21;;;;;;;3.53;3.23;;;22.20;52.60;;;;;;4973502;28;20560;-91
2022/03/19 04:28:47;;;;;;;3.30;3.00;;;22.20;52.60;;;;;;4972463;28;20469;-91
2022/03/19 04:31:13;;;;;;;3.60;3.27;;;22.20;52.70;;;;;;4990426;28;20488;-91
2022/03/19 04:33:38;;;;;;;4.10;3.27;;;22.20;52.70;;;;;;4989512;28;20238;-91
2022/03/19 04:38:52;;;;;;;3.23;2.93;;;22.20;52.70;;;;;;4991222;28;20172;-91
2022/03/19 04:41:18;;;;;;;3.20;2.90;;;22.20;52.70;;;;;;4974159;28;20429;-91
2022/03/19 04:43:44;;;;;;;3.37;3.07;;;22.10;52.70;;;;;;4973772;28;20432;-91
2022/03/19 04:46:10;;;;;;;3.90;3.27;;;22.10;52.70;;;;;;4974349;28;20433;-91
2022/03/19 04:48:37;;;;;;;3.10;2.80;;;22.10;52.70;;;;;;4973752;28;20468;-91
2022/03/19 04:51:03;;;;;;;3.70;3.13;;;22.10;52.70;;;;;;4977223;28;20182;-91
2022/03/19 04:53:30;;;;;;;3.60;3.30;;;22.10;52.70;;;;;;4996078;28;20504;-91
2022/03/19 04:55:55;;;;;;;3.10;2.80;;;22.10;52.70;;;;;;4978029;28;20182;-91
2022/03/19 05:01:43;;;;;;;3.33;3.03;;;22.10;52.70;;;;;;4994361;28;20213;-91
2022/03/19 05:07:42;;;;;;;3.97;2.80;;;22.10;52.80;;;;;;4995281;28;20182;-90
2022/03/19 05:13:01;;;;;;;4.27;3.90;;;22.00;52.80;;;;;;4981087;28;20392;-89
2022/03/19 05:15:26;;;;;;;3.43;3.13;;;22.00;52.80;;;;;;4994045;28;20432;-91
2022/03/19 05:21:15;;;;;;;3.57;2.93;;;22.00;52.80;;;;;;4994347;28;20180;-91
2022/03/19 05:23:47;;;;;;;3.13;2.73;;;22.00;52.90;;;;;;4976430;28;20413;-91
2022/03/19 05:26:13;;;;;;;3.30;3.00;;;22.00;52.90;;;;;;4976250;28;20413;-91
2022/03/19 05:28:39;;;;;;;2.90;2.70;;;22.00;52.90;;;;;;4976917;28;20461;-91
2022/03/19 05:31:08;;;;;;;3.40;3.10;;;22.00;52.90;;;;;;4975978;28;20449;-90
2022/03/19 05:39:45;;;;;;;3.70;3.30;;;22.00;52.90;;;;;;4933775;29;20413;-91
2022/03/19 05:45:33;;;;;;;3.27;3.00;;;22.00;52.90;;;;;;4933785;29;20185;-91
2022/03/19 05:48:01;;;;;;;3.60;2.87;;;22.00;52.90;;;;;;4933794;29;20420;-91
2022/03/19 05:50:27;;;;;;;2.90;2.60;;;22.00;53.00;;;;;;4917855;29;20456;-91
2022/03/19 05:52:54;;;;;;;3.80;2.77;;;22.00;52.90;;;;;;4918296;29;20416;-91
2022/03/19 05:55:20;;;;;;;2.63;2.43;;;22.00;53.00;;;;;;4933723;29;20187;-91
2022/03/19 05:57:49;;;;;;;3.20;2.90;;;22.00;52.90;;;;;;4932983;29;20971;-92
2022/03/19 06:00:16;;;;;;;4.00;3.00;;;22.00;52.90;;;;;;4932940;29;20427;-91
2022/03/19 06:02:42;;;;;;;3.10;2.80;;;22.00;52.90;;;;;;4917252;29;20495;-91
2022/03/19 06:08:30;;;;;;;3.53;2.80;;;22.10;52.90;;;;;;4934804;29;20451;-91
2022/03/19 06:10:56;;;;;;;2.90;2.70;;;22.00;52.90;;;;;;4933832;29;20954;-91
2022/03/19 06:13:25;;;;;;;3.47;3.17;;;22.10;53.00;;;;;;4943580;28;20977;-90
2022/03/19 06:15:51;;;;;;;2.83;2.53;;;22.10;53.00;;;;;;4974966;28;20413;-91
2022/03/19 06:18:17;;;;;;;3.53;2.53;;;22.10;52.90;;;;;;4974308;28;20425;-90
2022/03/19 06:20:43;;;;;;;3.77;3.47;;;22.10;52.90;;;;;;4991210;28;20181;-90
2022/03/19 06:23:09;;;;;;;2.67;2.47;;;22.10;52.90;;;;;;4974495;28;20429;-89
2022/03/19 06:25:35;;;;;;;3.10;2.80;;;22.10;52.90;;;;;;4970695;29;20442;-89
2022/03/19 06:28:02;;;;;;;3.83;2.83;;;22.10;52.90;;;;;;4954132;29;20504;-90
2022/03/19 06:30:31;;;;;;;3.60;2.70;;;22.10;52.90;;;;;;4971027;29;20457;-89
2022/03/19 06:32:58;;;;;;;3.20;2.77;;;22.10;52.90;;;;;;4971737;29;20433;-90
2022/03/19 06:38:10;;;;;;;2.83;2.53;;;22.10;52.90;;;;;;4971533;29;20462;-90
2022/03/19 06:40:38;;;;;;;3.47;2.83;;;22.10;52.90;;;;;;4972468;29;20833;-90
2022/03/19 06:43:04;;;;;;;2.83;2.60;;;22.10;52.90;;;;;;4973321;29;20420;-90
2022/03/19 06:45:34;;;;;;;3.67;2.97;;;22.10;52.90;;;;;;4954689;29;20513;-91
2022/03/19 06:48:00;;;;;;;3.30;3.00;;;22.10;52.90;;;;;;4955576;29;20430;-90
2022/03/19 06:53:49;;;;;;;3.43;2.90;;;22.20;53.00;;;;;;4973557;28;20380;-91
2022/03/19 06:56:15;;;;;;;3.80;3.20;;;22.20;53.00;;;;;;4975158;28;20417;-91
2022/03/19 06:58:41;;;;;;;3.00;2.77;;;22.20;53.00;;;;;;4974055;28;20424;-90
2022/03/19 07:01:14;;;;;;;3.10;2.80;;;22.20;53.00;;;;;;4991032;28;20497;-91
2022/03/19 07:03:49;;;;;;;3.03;2.77;;;22.20;53.00;;;;;;4973886;28;20170;-90
2022/03/19 07:06:19;;;;;;;3.00;2.70;;;22.20;53.00;;;;;;4974020;28;20448;-91
2022/03/19 07:08:46;;;;;;;2.43;2.23;;;22.20;53.00;;;;;;4973936;28;20472;-90
2022/03/19 07:11:14;;;;;;;3.30;2.90;;;22.20;53.00;;;;;;4974172;28;20421;-89
2022/03/19 07:13:43;;;;;;;3.00;2.70;;;22.20;53.00;;;;;;4973942;28;20445;-92
2022/03/19 07:16:09;;;;;;;4.43;3.10;;;22.20;53.00;;;;;;4992630;28;20521;-91
2022/03/19 07:18:36;;;;;;;4.30;3.03;;;22.30;53.10;;;;;;4959183;28;20519;-92
2022/03/19 07:21:02;;;;;;;3.83;3.20;;;22.20;53.00;;;;;;4991440;28;20417;-92
2022/03/19 07:24:13;;;;;;;3.60;3.03;;;22.30;53.10;;;;;;4992273;28;20590;-91
2022/03/19 07:26:41;;;;;;;3.47;3.17;;;22.30;53.10;;;;;;4933459;29;20498;-92
2022/03/19 07:29:15;;;;;;;2.70;2.47;;;22.30;53.10;;;;;;4935258;29;20548;-91
2022/03/19 07:31:45;;;;;;;4.10;3.20;;;22.30;53.10;;;;;;4935430;29;20472;-91
2022/03/19 07:34:19;;;;;;;3.57;3.10;;;22.30;53.10;;;;;;4934498;29;20426;-91
2022/03/19 07:36:48;;;;;;;3.60;2.93;;;22.30;53.10;;;;;;4919757;29;20450;-91
2022/03/19 07:39:14;;;;;;;3.13;2.83;;;22.30;53.10;;;;;;4917936;29;20415;-90
2022/03/19 07:41:45;;;;;;;3.00;2.70;;;22.30;53.10;;;;;;4917492;29;20416;-91
2022/03/19 07:44:15;;;;;;;3.90;3.23;;;22.30;53.10;;;;;;4918446;29;20396;-91
2022/03/19 07:46:44;;;;;;;3.00;2.63;;;22.30;53.10;;;;;;4918528;29;20428;-90
2022/03/19 07:56:07;;;;;;;4.20;2.93;;;22.30;53.10;;;;;;4913708;29;20396;-90
2022/03/19 07:58:37;;;;;;;2.47;2.20;;;22.30;53.10;;;;;;4899019;29;20491;-91
2022/03/19 08:01:03;;;;;;;3.30;3.00;;;22.30;53.20;;;;;;4900163;29;20417;-90
2022/03/19 08:03:30;;;;;;;3.77;3.10;;;22.30;53.10;;;;;;4933100;29;20435;-91
2022/03/19 08:05:56;;;;;;;2.70;2.50;;;22.30;53.10;;;;;;4932283;29;20427;-90
2022/03/19 08:08:23;;;;;;;3.97;2.87;;;22.30;53.10;;;;;;4932869;29;20215;-90
2022/03/19 08:10:53;;;;;;;2.70;2.50;;;22.30;53.10;;;;;;4947102;29;20478;-90
2022/03/19 08:13:24;;;;;;;3.10;2.80;;;22.30;53.10;;;;;;4935912;29;20419;-92
2022/03/19 08:15:54;;;;;;;2.97;2.70;;;22.30;53.10;;;;;;4935388;29;20430;-91
2022/03/19 08:18:23;;;;;;;4.03;2.80;;;22.30;53.10;;;;;;4935097;29;20423;-90
2022/03/19 08:20:52;;;;;;;2.60;2.40;;;22.30;53.10;;;;;;4920293;29;20486;-91
2022/03/19 08:23:20;;;;;;;2.70;2.50;;;22.30;53.10;;;;;;4964503;28;20428;-91
2022/03/19 08:25:58;;;;;;;3.33;2.90;;;22.30;53.10;;;;;;4973642;28;20436;-89
2022/03/19 08:28:25;;;;;;;3.40;2.90;;;22.30;53.10;;;;;;4974751;28;20470;-91
2022/03/19 08:30:55;;;;;;;3.30;3.00;;;22.30;53.20;;;;;;4958514;28;20417;-91
2022/03/19 08:33:21;;;;;;;5.40;2.97;;;22.30;53.10;;;;;;4975853;28;20421;-91
2022/03/19 08:35:50;;;;;;;3.00;2.77;;;22.40;53.20;;;;;;4958991;28;20465;-91
2022/03/19 08:41:04;;;;;;;3.10;2.80;;;22.40;53.20;;;;;;4978465;28;20413;-90
2022/03/19 08:43:37;;;;;;;2.50;2.30;;;22.30;53.10;;;;;;4974578;28;20503;-91
2022/03/19 08:46:12;;;;;;;2.60;2.27;;;22.40;53.20;;;;;;4973974;28;20500;-91
2022/03/19 08:48:37;;;;;;;3.10;2.70;;;22.40;53.20;;;;;;4974013;28;20457;-90
2022/03/19 08:51:44;;;;;;;3.70;2.70;;;22.40;53.20;;;;;;4971324;28;20421;-92
2022/03/19 08:54:23;;;;;;;2.97;2.60;;;22.40;53.20;;;;;;4991937;28;20173;-91
2022/03/19 08:56:56;;;;;;;3.70;2.80;;;22.40;53.20;;;;;;4974270;28;20412;-91
2022/03/19 08:59:29;;;;;;;3.50;2.70;;;22.40;53.20;;;;;;4991657;28;20416;-91
2022/03/19 09:02:01;;;;;;;3.50;2.83;;;22.40;53.30;;;;;;4990341;28;20420;-91
2022/03/19 09:04:28;;;;;;;4.07;2.53;;;22.40;53.20;;;;;;4974434;28;20418;-91
2022/03/19 09:07:00;;;;;;;3.10;2.40;;;22.40;53.30;;;;;;4974476;28;20448;-91
2022/03/19 09:09:26;;;;;;;3.53;2.60;;;22.40;53.30;;;;;;4974596;28;20468;-91
2022/03/19 09:11:52;;;;;;;3.33;2.97;;;22.40;53.20;;;;;;4989510;28;20481;-91
2022/03/19 09:14:27;;;;;;;2.87;2.53;;;22.40;53.30;;;;;;4991525;28;20441;-91
2022/03/19 09:27:03;;;;;;;4.70;2.73;;;22.40;53.30;;;;;;4893643;29;20958;-91
2022/03/19 09:29:35;;;;;;;3.30;2.70;;;22.30;53.40;;;;;;4880018;29;20530;-91
2022/03/19 09:32:12;;;;;;;;;;;;;;;;;;;;;
2022/03/19 09:34:39;;;;;;;3.07;2.00;;;22.30;53.40;;;;;;4892309;29;20445;-92
2022/03/19 09:37:05;;;;;;;3.10;2.50;;;22.30;53.30;;;;;;4881490;29;20441;-91
2022/03/19 09:42:55;;;;;;;2.40;2.20;;;22.40;53.40;;;;;;4898256;29;20948;-91
2022/03/19 09:45:28;;;;;;;3.73;2.03;;;22.30;53.30;;;;;;4897556;29;20425;-92
2022/03/19 09:48:02;;;;;;;3.53;2.80;;;22.30;53.40;;;;;;4898084;29;20421;-92
2022/03/19 09:50:39;;;;;;;2.67;2.47;;;22.30;53.30;;;;;;4898034;29;20421;-91
2022/03/19 09:53:05;;;;;;;2.30;2.10;;;22.30;53.30;;;;;;4878330;29;20452;-89
2022/03/19 09:55:54;;;;;;;;;;;;;;;;;;;;;
2022/03/19 09:58:32;;;;;;;2.73;2.50;;;22.30;53.30;;;;;;4893197;29;20501;-90
2022/03/19 10:01:06;;;;;;;3.60;2.77;;;22.40;53.40;;;;;;4901066;29;20961;-90
2022/03/19 10:03:41;;;;;;;3.60;2.40;;;22.40;53.40;;;;;;4912266;29;20432;-90
2022/03/19 10:09:01;;;;;;;2.53;2.33;;;22.30;53.30;;;;;;4882174;29;20480;-89
2022/03/19 10:11:35;;;;;;;2.70;2.43;;;22.40;53.40;;;;;;4886852;29;20421;-88
2022/03/19 10:14:06;;;;;;;2.67;2.47;;;22.40;53.40;;;;;;4895398;29;20591;-88
2022/03/19 10:16:36;;;;;;;2.60;2.33;;;22.40;53.30;;;;;;4896470;29;20424;-88
2022/03/19 10:19:04;;;;;;;2.90;2.40;;;22.40;53.40;;;;;;4911308;29;20780;-88
2022/03/19 10:22:19;;;;;;;2.80;2.40;;;22.40;53.00;;;;;;4894918;29;20428;-88
2022/03/19 10:24:59;;;;;;;3.60;2.60;;;22.40;53.30;;;;;;4894914;29;20444;-88
2022/03/19 10:27:30;;;;;;;3.00;2.23;;;22.30;53.30;;;;;;4973309;28;20432;-88
2022/03/19 10:30:28;;;;;;;3.07;2.23;;;22.30;53.30;;;;;;4973228;28;20488;-88
2022/03/19 10:33:27;;;;;;;4.60;2.40;;;22.40;53.40;;;;;;4988783;28;20421;-89
2022/03/19 10:39:30;;;;;;;2.50;2.30;;;22.30;53.30;;;;;;4988447;28;20445;-89
2022/03/19 10:41:59;;;;;;;2.20;2.00;;;22.30;53.30;;;;;;4990062;28;20451;-90
2022/03/19 10:44:28;;;;;;;3.10;2.70;;;22.30;53.30;;;;;;4978283;28;20421;-89
2022/03/19 10:46:58;;;;;;;3.07;2.33;;;22.30;53.30;;;;;;4982402;28;20418;-88
2022/03/19 10:49:28;;;;;;;2.83;2.30;;;22.30;53.30;;;;;;4967083;29;20493;-89
2022/03/19 10:51:58;;;;;;;3.60;2.70;;;22.30;53.30;;;;;;4966668;29;20421;-89
2022/03/19 10:54:26;;;;;;;3.47;2.73;;;22.30;53.30;;;;;;4966386;29;20477;-89
2022/03/19 10:56:53;;;;;;;2.40;2.20;;;22.40;53.30;;;;;;4982472;28;20909;-89
2022/03/19 10:59:20;;;;;;;2.63;2.20;;;22.40;53.30;;;;;;4966475;29;20425;-89
2022/03/19 11:01:49;;;;;;;2.57;2.23;;;22.40;53.30;;;;;;4983374;28;20473;-88
2022/03/19 11:04:17;;;;;;;2.63;2.43;;;22.40;53.30;;;;;;4967699;28;20418;-88
2022/03/19 11:06:50;;;;;;;2.43;1.77;;;22.40;53.30;;;;;;4967930;28;20454;-90
2022/03/19 11:09:22;;;;;;;3.00;2.13;;;22.30;53.30;;;;;;4966378;29;20465;-90
2022/03/19 11:11:59;;;;;;;2.43;2.23;;;22.40;53.30;;;;;;4966728;29;20414;-89
2022/03/19 11:14:30;;;;;;;2.60;2.40;;;22.40;53.30;;;;;;4967232;29;20429;-89
2022/03/19 11:17:24;;;;;;;3.93;2.60;;;22.40;53.30;;;;;;4966083;29;20426;-89
2022/03/19 11:19:52;;;;;;;2.30;2.10;;;22.30;53.20;;;;;;4965737;29;20457;-89
2022/03/19 11:22:39;;;;;;;3.07;2.67;;;22.30;53.20;;;;;;4965902;29;20510;-89
2022/03/19 11:25:50;;;;;;;3.83;2.40;;;22.30;53.20;;;;;;4966608;29;20443;-89
2022/03/19 11:28:31;;;;;;;2.50;2.27;;;22.30;53.20;;;;;;4966004;29;20461;-88
2022/03/19 11:31:07;;;;;;;2.83;2.30;;;22.30;53.20;;;;;;4982089;28;20779;-89
2022/03/19 11:33:35;;;;;;;1.90;1.67;;;22.30;53.30;;;;;;4966320;29;20441;-89
2022/03/19 11:36:10;;;;;;;2.23;2.03;;;22.30;53.80;;;;;;4965237;29;20414;-89
2022/03/19 11:39:41;;;;;;;3.10;2.80;;;22.30;53.20;;;;;;4966872;28;20444;-89
2022/03/19 11:42:11;;;;;;;2.33;2.07;;;22.30;53.20;;;;;;4967460;28;20510;-89
2022/03/19 11:44:51;;;;;;;2.33;2.10;;;22.30;53.20;;;;;;4966403;28;20442;-89
2022/03/19 11:47:21;;;;;;;2.77;2.50;;;22.30;53.20;;;;;;4968814;28;20408;-89
2022/03/19 11:49:52;;;;;;;2.10;1.80;;;22.30;53.20;;;;;;4985426;28;21014;-88
2022/03/19 11:52:24;;;;;;;2.70;2.50;;;22.30;53.20;;;;;;4986146;28;20390;-89
2022/03/19 11:55:03;;;;;;;2.80;2.30;;;22.30;53.20;;;;;;4968473;28;20488;-88
2022/03/19 11:57:46;;;;;;;2.57;2.20;;;22.30;53.20;;;;;;4968342;28;20425;-89
2022/03/19 12:00:23;;;;;;;3.37;1.97;;;22.30;53.10;;;;;;4968556;28;20823;-89
2022/03/19 12:03:10;;;;;;;5.40;2.17;;;22.30;53.10;;;;;;4967889;28;20448;-89
2022/03/19 12:05:38;;;;;;;2.70;2.20;;;22.30;53.10;;;;;;4985939;28;20488;-88
2022/03/19 12:08:12;;;;;;;2.90;2.10;;;22.30;53.10;;;;;;4986723;28;20799;-89
2022/03/19 12:11:13;;;;;;;2.23;1.90;;;22.30;53.10;;;;;;4970828;28;20507;-89
2022/03/19 12:13:42;;;;;;;2.30;2.10;;;22.30;53.10;;;;;;4933462;28;20413;-89
2022/03/19 12:16:12;;;;;;;2.57;2.20;;;22.30;53.20;;;;;;4969934;28;20432;-89
2022/03/19 12:18:47;;;;;;;2.60;2.40;;;22.30;53.20;;;;;;4969152;28;20448;-89
2022/03/19 12:21:13;;;;;;;3.53;2.43;;;22.30;53.20;;;;;;4986671;28;20404;-89
2022/03/19 12:24:06;;;;;;;2.97;2.00;;;22.40;53.20;;;;;;4969626;28;20476;-89
2022/03/19 12:26:57;;;;;;;2.47;2.10;;;22.40;53.20;;;;;;4969284;28;20259;-88
2022/03/19 12:29:30;;;;;;;2.80;2.10;;;22.40;53.20;;;;;;4986349;28;20449;-89
2022/03/19 12:31:56;;;;;;;3.53;2.40;;;22.30;53.10;;;;;;4969545;28;20405;-88
2022/03/19 12:34:24;;;;;;;5.00;2.23;;;22.30;53.10;;;;;;4986059;28;20417;-88
2022/03/19 12:36:56;;;;;;;6.00;2.30;;;22.40;53.20;;;;;;4969555;28;20760;-88
2022/03/19 12:39:22;;;;;;;3.87;2.30;;;22.40;53.20;;;;;;4986867;28;20412;-89
2022/03/19 12:41:48;;;;;;;2.90;2.57;;;22.40;53.10;;;;;;4986764;28;20429;-88
2022/03/19 12:44:24;;;;;;;2.70;2.20;;;22.40;53.10;;;;;;4986036;28;20189;-88
2022/03/19 12:47:16;;;;;;;2.00;1.80;;;22.40;53.10;;;;;;4969682;28;20184;-88
2022/03/19 12:53:00;;;;;;;3.83;2.53;;;22.30;53.00;;;;;;4979823;28;20428;-89
2022/03/19 12:55:26;;;;;;;3.13;2.03;;;22.30;53.10;;;;;;4968791;28;20413;-89
2022/03/19 12:57:59;;;;;;;5.40;2.57;;;22.30;53.10;;;;;;4969194;28;20224;-89
2022/03/19 13:00:25;;;;;;;2.70;2.30;;;22.30;53.10;;;;;;4968959;28;20272;-89
2022/03/19 13:02:53;;;;;;;4.97;2.23;;;22.30;53.10;;;;;;4969120;28;20442;-89
2022/03/19 13:05:19;;;;;;;3.33;2.33;;;22.30;53.10;;;;;;4967985;28;20413;-89
2022/03/19 13:08:02;;;;;;;3.13;2.33;;;22.40;53.10;;;;;;4986149;28;20401;-88
2022/03/19 13:10:41;;;;;;;2.80;2.13;;;22.40;53.10;;;;;;4971363;28;20181;-88
2022/03/19 13:13:10;;;;;;;2.77;2.50;;;22.30;53.10;;;;;;4974422;28;20416;-86
2022/03/19 13:19:06;;;;;;;2.90;2.20;;;22.30;53.10;;;;;;4992998;28;20401;-88
2022/03/19 13:21:35;;;;;;;3.13;2.57;;;22.30;53.10;;;;;;4975037;28;20409;-88
2022/03/19 13:24:03;;;;;;;2.67;2.17;;;22.30;53.10;;;;;;4992409;28;20402;-87
2022/03/19 13:26:30;;;;;;;4.40;2.30;;;22.30;53.10;;;;;;4974953;28;20409;-88
2022/03/19 13:29:05;;;;;;;5.00;2.60;;;22.30;53.10;;;;;;4973867;28;20456;-88
2022/03/19 13:31:36;;;;;;;2.97;1.93;;;22.30;53.10;;;;;;4973528;28;20505;-89
2022/03/19 13:34:03;;;;;;;3.50;2.03;;;22.30;53.10;;;;;;4973709;28;20907;-89
2022/03/19 13:36:33;;;;;;;3.07;2.20;;;22.30;53.10;;;;;;4991773;28;20977;-88
2022/03/19 13:39:00;;;;;;;2.37;2.17;;;22.30;53.10;;;;;;4974478;28;20432;-87
2022/03/19 13:41:26;;;;;;;3.90;2.30;;;22.30;53.70;;;;;;4991051;28;20413;-87
2022/03/19 13:43:52;;;;;;;2.70;2.40;;;22.30;53.10;;;;;;4973207;28;20437;-87
2022/03/19 13:47:00;;;;;;;2.77;2.00;;;22.30;53.10;;;;;;4990651;28;20429;-87
2022/03/19 13:49:25;;;;;;;2.33;2.03;;;22.30;53.10;;;;;;4974350;28;20464;-88
2022/03/19 13:51:54;;;;;;;2.77;1.93;;;22.30;53.20;;;;;;4973565;28;20428;-87
2022/03/19 13:54:42;;;;;;;2.27;2.07;;;22.30;53.10;;;;;;4955640;28;20193;-88
2022/03/19 13:57:10;;;;;;;2.53;1.80;;;22.30;53.10;;;;;;4971688;29;20524;-87
2022/03/19 13:59:39;;;;;;;3.20;2.30;;;22.30;53.10;;;;;;4983523;28;20425;-88
2022/03/19 14:02:14;;;;;;;3.30;2.20;;;22.30;53.10;;;;;;4972850;28;20432;-88
2022/03/19 14:04:40;;;;;;;2.50;2.00;;;22.30;53.10;;;;;;4973138;28;20420;-88
2022/03/19 14:07:09;;;;;;;2.80;1.97;;;22.30;53.10;;;;;;4971441;28;20433;-87
2022/03/19 14:09:44;;;;;;;2.20;2.00;;;22.30;53.10;;;;;;4989061;28;20204;-87
2022/03/19 14:15:48;;;;;;;2.30;2.00;;;22.30;53.10;;;;;;4910374;29;20831;-86
2022/03/19 14:18:33;;;;;;;4.67;2.03;;;22.30;53.10;;;;;;4894151;29;20508;-86
2022/03/19 14:21:08;;;;;;;2.60;1.87;;;22.30;53.10;;;;;;4894030;29;20486;-86
2022/03/19 14:23:46;;;;;;;2.80;1.97;;;22.30;53.10;;;;;;4893465;29;20935;-86
2022/03/19 14:26:17;;;;;;;3.90;2.30;;;22.30;53.10;;;;;;4893575;29;20427;-87
2022/03/19 14:28:43;;;;;;;2.83;2.07;;;22.30;53.10;;;;;;4894279;29;20464;-86
2022/03/19 14:31:16;;;;;;;3.17;2.10;;;22.30;53.10;;;;;;4894226;29;20427;-88
2022/03/19 14:33:43;;;;;;;3.23;2.30;;;22.30;53.10;;;;;;4910105;29;20275;-87
2022/03/19 14:36:09;;;;;;;2.90;2.40;;;22.30;53.10;;;;;;4909750;29;20562;-87
2022/03/19 14:39:03;;;;;;;4.20;2.20;;;22.30;53.10;;;;;;4909566;29;20445;-87